Time;durP1;ratioP1;P1;durP2;ratioP2;P2;SDS_P1;SDS_P2;PMS_P1;PMS_P2;Temp;Humidity;BMP_temperature;BMP_pressure;BME280_temperature;BME280_humidity;BME280_pressure;Samples;Min_cycle;Max_cycle;Signal;HPM_P1;HPM_P2
2022/05/21 00:03:01;;;;;;;1.30;1.20;;;;;;;;;;12527077;28;20048;-79
2022/05/21 00:09:03;;;;;;;2.85;1.02;;;;;;;;;;12525955;28;20033;-79
2022/05/21 00:15:05;;;;;;;1.58;1.10;;;;;;;;;;12543666;28;20033;-79
2022/05/21 00:21:08;;;;;;;1.25;1.15;;;;;;;;;;12509541;28;20517;-79
2022/05/21 00:27:11;;;;;;;2.17;1.17;;;;;;;;;;12543436;28;20044;-79
2022/05/21 00:33:14;;;;;;;1.48;1.35;;;;;;;;;;12543444;28;20060;-79
2022/05/21 00:39:16;;;;;;;1.30;1.20;;;;;;;;;;12542874;28;20048;-79
2022/05/21 00:45:18;;;;;;;1.40;1.25;;;;;;;;;;12542871;28;20040;-78
2022/05/21 00:51:21;;;;;;;2.05;1.40;;;;;;;;;;12516359;28;20148;-79
2022/05/21 00:57:30;;;;;;;1.95;1.27;;;;;;;;;;12533950;28;20055;-79
2022/05/21 01:03:32;;;;;;;1.48;1.15;;;;;;;;;;12552249;28;20032;-79
2022/05/21 01:09:34;;;;;;;;;;;;;;;;;;12551798;28;20044;-79
2022/05/21 01:15:40;;;;;;;1.92;1.80;;;;;;;;;;12550866;28;19916;-79
2022/05/21 01:21:43;;;;;;;1.77;1.52;;;;;;;;;;12532964;28;20041;-79
2022/05/21 01:27:46;;;;;;;2.47;1.40;;;;;;;;;;12532590;28;20035;-79
2022/05/21 01:33:47;;;;;;;3.03;1.77;;;;;;;;;;12532878;28;20057;-79
2022/05/21 01:39:50;;;;;;;1.70;1.52;;;;;;;;;;12515677;28;20053;-79
2022/05/21 01:45:52;;;;;;;1.60;1.50;;;;;;;;;;12531618;28;20036;-79
2022/05/21 01:51:55;;;;;;;2.45;1.73;;;;;;;;;;12549385;28;20048;-79
2022/05/21 01:57:57;;;;;;;2.08;1.73;;;;;;;;;;12531445;28;20045;-79
2022/05/21 02:03:59;;;;;;;3.83;2.22;;;;;;;;;;12531550;28;20039;-78
2022/05/21 02:10:01;;;;;;;3.67;1.80;;;;;;;;;;12548364;28;20512;-79
2022/05/21 02:16:03;;;;;;;;;;;;;;;;;;12548536;28;20033;-79
2022/05/21 02:22:04;;;;;;;2.28;1.92;;;;;;;;;;12547967;28;19909;-79
2022/05/21 02:28:06;;;;;;;2.00;1.80;;;;;;;;;;12529749;28;20032;-79
2022/05/21 02:34:08;;;;;;;2.75;1.77;;;;;;;;;;12529865;28;20049;-79
2022/05/21 02:40:10;;;;;;;2.77;2.13;;;;;;;;;;12546816;28;20068;-79
2022/05/21 02:46:12;;;;;;;1.67;1.48;;;;;;;;;;12528837;28;20032;-79
2022/05/21 02:52:15;;;;;;;;;;;;;;;;;;12547137;28;20033;-79
2022/05/21 02:58:16;;;;;;;;;;;;;;;;;;12546718;28;19916;-79
2022/05/21 03:04:18;;;;;;;2.40;2.20;;;;;;;;;;12546776;28;19915;-79
2022/05/21 03:10:21;;;;;;;3.08;2.30;;;;;;;;;;12510708;28;20040;-79
2022/05/21 03:16:23;;;;;;;2.22;1.98;;;;;;;;;;12527659;28;20044;-79
2022/05/21 03:22:26;;;;;;;1.90;1.70;;;;;;;;;;12545225;28;20033;-79
2022/05/21 03:28:28;;;;;;;1.88;1.75;;;;;;;;;;12527500;28;20037;-79
2022/05/21 03:34:30;;;;;;;2.20;2.00;;;;;;;;;;12545167;28;20049;-79
2022/05/21 03:40:32;;;;;;;2.30;2.10;;;;;;;;;;12510292;28;20508;-79
2022/05/21 03:46:38;;;;;;;3.15;2.13;;;;;;;;;;12544209;28;20037;-79
2022/05/21 03:52:40;;;;;;;2.45;2.15;;;;;;;;;;12526797;28;20045;-79
2022/05/21 03:58:41;;;;;;;2.77;1.70;;;;;;;;;;12526130;28;20041;-79
2022/05/21 04:04:43;;;;;;;2.30;2.20;;;;;;;;;;12545083;28;20306;-79
2022/05/21 04:10:47;;;;;;;2.80;2.27;;;;;;;;;;12525751;28;20048;-79
2022/05/21 04:16:48;;;;;;;3.47;2.13;;;;;;;;;;12543766;28;20651;-79
2022/05/21 04:22:51;;;;;;;1.50;1.40;;;;;;;;;;12527848;28;20029;-78
2022/05/21 04:28:56;;;;;;;3.25;2.00;;;;;;;;;;12553297;28;20048;-78
2022/05/21 04:34:58;;;;;;;2.10;1.90;;;;;;;;;;12518885;28;20061;-79
2022/05/21 04:40:59;;;;;;;2.83;2.30;;;;;;;;;;12534904;28;20053;-79
2022/05/21 04:47:03;;;;;;;2.00;1.90;;;;;;;;;;12534596;28;20318;-77
2022/05/21 04:53:07;;;;;;;1.67;1.38;;;;;;;;;;12552068;28;20036;-77
2022/05/21 04:59:09;;;;;;;2.42;2.05;;;;;;;;;;12533910;28;20037;-77
2022/05/21 05:05:11;;;;;;;1.02;1.02;;;;;;;;;;12534448;28;20037;-78
2022/05/21 05:11:13;;;;;;;1.55;1.45;;;;;;;;;;12551323;28;20036;-78
2022/05/21 05:17:15;;;;;;;2.05;1.67;;;;;;;;;;12533296;28;20402;-78
2022/05/21 05:23:17;;;;;;;2.35;2.17;;;;;;;;;;12533056;28;20029;-78
2022/05/21 05:29:19;;;;;;;2.30;2.10;;;;;;;;;;12533132;28;20029;-77
2022/05/21 05:35:22;;;;;;;1.83;1.63;;;;;;;;;;12549525;28;20052;-78
2022/05/21 05:41:23;;;;;;;1.75;1.65;;;;;;;;;;12531512;28;20049;-78
2022/05/21 05:47:27;;;;;;;3.08;2.50;;;;;;;;;;12515278;28;20040;-78
2022/05/21 05:53:29;;;;;;;2.30;2.10;;;;;;;;;;12549372;28;20033;-78
2022/05/21 05:59:49;;;;;;;2.53;1.92;;;;;;;;;;12548958;28;20060;-78
2022/05/21 06:05:50;;;;;;;2.35;2.13;;;;;;;;;;12531861;28;20540;-78
2022/05/21 06:11:52;;;;;;;2.05;1.92;;;;;;;;;;12549842;28;20037;-78
2022/05/21 06:17:54;;;;;;;3.47;2.65;;;;;;;;;;12514758;28;20045;-78
2022/05/21 06:23:56;;;;;;;;;;;;;;;;;;12551448;28;20044;-78
2022/05/21 06:29:58;;;;;;;5.07;3.45;;;;;;;;;;12531507;28;19909;-78
2022/05/21 06:36:05;;;;;;;2.40;2.20;;;;;;;;;;12550552;28;20048;-78
2022/05/21 06:42:07;;;;;;;3.03;2.28;;;;;;;;;;12549165;28;20056;-78
2022/05/21 06:48:09;;;;;;;1.95;1.85;;;;;;;;;;12515691;28;20028;-78
2022/05/21 06:54:11;;;;;;;2.70;1.95;;;;;;;;;;12533239;28;20048;-78
2022/05/21 07:00:13;;;;;;;1.33;1.23;;;;;;;;;;12514832;28;20052;-78
2022/05/21 07:12:35;;;;;;;3.15;1.95;;;;;;;;;;12530227;28;20409;-78
2022/05/21 07:18:37;;;;;;;1.77;1.45;;;;;;;;;;12511367;28;20041;-78
2022/05/21 07:24:39;;;;;;;2.25;1.30;;;;;;;;;;12527412;28;20029;-78
2022/05/21 07:30:43;;;;;;;1.95;1.27;;;;;;;;;;12545712;28;20029;-78
2022/05/21 07:36:46;;;;;;;1.35;0.93;;;;;;;;;;12528301;28;20509;-79
2022/05/21 07:42:48;;;;;;;1.42;0.85;;;;;;;;;;12545323;28;20040;-79
2022/05/21 07:48:50;;;;;;;;;;;;;;;;;;12544742;28;20490;-78
2022/05/21 07:54:53;;;;;;;1.63;1.02;;;;;;;;;;12509862;28;19909;-79
2022/05/21 08:00:55;;;;;;;0.70;0.70;;;;;;;;;;12525980;28;20056;-79
2022/05/21 08:06:59;;;;;;;2.05;1.30;;;;;;;;;;12526119;28;20033;-79
2022/05/21 08:13:02;;;;;;;1.52;1.40;;;;;;;;;;12525976;28;20395;-79
2022/05/21 08:19:04;;;;;;;2.58;1.42;;;;;;;;;;12509753;28;20052;-78
2022/05/21 08:31:27;;;;;;;0.70;0.55;;;;;;;;;;12525118;28;19959;-76
2022/05/21 08:37:28;;;;;;;1.52;1.00;;;;;;;;;;12525371;28;20494;-78
2022/05/21 08:43:30;;;;;;;;;;;;;;;;;;12525980;28;20287;-78
2022/05/21 08:49:33;;;;;;;2.83;1.55;;;;;;;;;;12525742;28;19909;-79
2022/05/21 08:55:37;;;;;;;0.70;0.70;;;;;;;;;;12544883;28;20033;-77
2022/05/21 09:01:40;;;;;;;24.48;10.02;;;;;;;;;;12527895;28;20045;-79
2022/05/21 09:08:05;;;;;;;3.33;1.52;;;;;;;;;;12548851;28;20036;-79
2022/05/21 09:14:10;;;;;;;3.60;1.42;;;;;;;;;;12515956;28;20052;-78
2022/05/21 09:20:18;;;;;;;2.50;0.80;;;;;;;;;;12551294;28;20037;-78
2022/05/21 09:26:24;;;;;;;1.65;0.60;;;;;;;;;;12532997;28;20387;-79
2022/05/21 09:32:32;;;;;;;1.80;0.85;;;;;;;;;;12550377;28;20055;-79
2022/05/21 09:38:55;;;;;;;1.52;1.00;;;;;;;;;;12532298;28;20041;-79
2022/05/21 09:51:21;;;;;;;1.65;1.00;;;;;;;;;;12549414;28;20033;-79
2022/05/21 09:57:31;;;;;;;0.50;0.50;;;;;;;;;;12515331;28;20037;-78
2022/05/21 10:03:38;;;;;;;1.52;0.88;;;;;;;;;;12529534;28;20040;-78
2022/05/21 10:16:25;;;;;;;3.45;0.98;;;;;;;;;;12576318;28;20033;-80
2022/05/21 10:22:36;;;;;;;2.88;1.00;;;;;;;;;;12595921;28;20029;-80
2022/05/21 10:28:54;;;;;;;1.60;0.80;;;;;;;;;;12558691;28;20040;-78
2022/05/21 10:34:56;;;;;;;0.95;0.60;;;;;;;;;;12561125;28;20053;-79
2022/05/21 10:41:03;;;;;;;0.68;0.65;;;;;;;;;;12580318;28;20040;-79
2022/05/21 10:47:10;;;;;;;0.52;0.52;;;;;;;;;;12557799;28;20029;-79
2022/05/21 10:53:21;;;;;;;0.90;0.80;;;;;;;;;;12593386;28;20046;-80
2022/05/21 10:59:34;;;;;;;1.30;0.90;;;;;;;;;;12569784;28;20063;-80
2022/05/21 11:05:41;;;;;;;0.60;0.60;;;;;;;;;;12585631;28;20033;-80
2022/05/21 11:11:53;;;;;;;0.80;0.80;;;;;;;;;;12565995;28;20037;-80
2022/05/21 11:17:54;;;;;;;;;;;;;;;;;;12589449;28;20036;-77
2022/05/21 11:24:06;;;;;;;1.60;0.90;;;;;;;;;;12574598;28;19919;-78
2022/05/21 11:30:08;;;;;;;2.22;1.40;;;;;;;;;;12557766;28;20033;-79
2022/05/21 11:37:20;;;;;;;0.80;0.80;;;;;;;;;;12590556;28;20061;-79
2022/05/21 11:42:41;;;;;;;;;;;;;;;;;;12561865;28;20049;-79
2022/05/21 11:48:43;;;;;;;2.38;1.00;;;;;;;;;;12568045;28;19908;-78
2022/05/21 11:54:48;;;;;;;1.30;1.20;;;;;;;;;;12592997;28;20516;-79
2022/05/21 12:00:51;;;;;;;2.08;1.45;;;;;;;;;;12597853;28;20113;-79
2022/05/21 12:06:53;;;;;;;1.88;1.13;;;;;;;;;;12595523;28;20100;-79
2022/05/21 12:13:03;;;;;;;1.10;1.00;;;;;;;;;;12595825;28;20481;-80
2022/05/21 12:19:07;;;;;;;2.78;1.10;;;;;;;;;;12559787;28;20044;-79
2022/05/21 12:25:13;;;;;;;1.67;1.02;;;;;;;;;;12598144;28;20123;-78
2022/05/21 12:31:21;;;;;;;2.13;1.55;;;;;;;;;;12582006;28;20113;-79
2022/05/21 12:37:26;;;;;;;1.42;1.33;;;;;;;;;;12596527;28;20049;-80
2022/05/21 12:43:28;;;;;;;2.47;0.98;;;;;;;;;;12579730;28;20084;-79
2022/05/21 12:49:31;;;;;;;1.55;1.20;;;;;;;;;;12609808;28;20077;-80
2022/05/21 12:55:34;;;;;;;0.60;0.60;;;;;;;;;;12608238;28;20085;-79
2022/05/21 13:01:43;;;;;;;1.00;0.90;;;;;;;;;;12587273;28;20037;-79
2022/05/21 13:07:45;;;;;;;2.67;1.08;;;;;;;;;;12606010;28;20100;-79
2022/05/21 13:13:53;;;;;;;1.48;0.90;;;;;;;;;;12579278;28;20032;-79
2022/05/21 13:20:18;;;;;;;1.30;0.85;;;;;;;;;;12562301;28;20056;-79
2022/05/21 13:26:22;;;;;;;3.42;1.10;;;;;;;;;;12548230;28;20045;-79
2022/05/21 13:32:31;;;;;;;2.60;1.27;;;;;;;;;;12564233;28;20069;-81
2022/05/21 13:38:35;;;;;;;2.20;1.05;;;;;;;;;;12538293;28;20501;-79
2022/05/21 13:44:38;;;;;;;1.35;1.25;;;;;;;;;;12569571;28;20029;-79
2022/05/21 13:50:40;;;;;;;1.33;1.05;;;;;;;;;;12590221;28;20043;-78
2022/05/21 13:56:43;;;;;;;2.08;1.13;;;;;;;;;;12550335;28;20029;-79
2022/05/21 14:02:49;;;;;;;1.70;1.45;;;;;;;;;;12532680;28;20048;-79
2022/05/21 14:08:56;;;;;;;1.05;0.88;;;;;;;;;;12531435;28;20037;-79
2022/05/21 14:15:00;;;;;;;1.42;1.05;;;;;;;;;;12514956;28;20033;-79
2022/05/21 14:21:04;;;;;;;1.70;1.27;;;;;;;;;;12531242;28;20044;-79
2022/05/21 14:27:30;;;;;;;1.27;1.13;;;;;;;;;;12530447;28;20033;-79
2022/05/21 14:33:32;;;;;;;1.63;1.00;;;;;;;;;;12529620;28;20533;-79
2022/05/21 14:39:34;;;;;;;1.80;1.13;;;;;;;;;;12546805;28;20045;-80
2022/05/21 14:45:36;;;;;;;1.52;1.35;;;;;;;;;;12546609;28;20047;-79
2022/05/21 14:58:01;;;;;;;1.55;1.45;;;;;;;;;;12546285;28;20045;-79
2022/05/21 15:04:03;;;;;;;2.38;1.15;;;;;;;;;;12529113;28;20045;-79
2022/05/21 15:10:05;;;;;;;1.52;1.40;;;;;;;;;;12527749;28;20060;-79
2022/05/21 15:16:07;;;;;;;1.73;1.27;;;;;;;;;;12545451;28;20394;-79
2022/05/21 15:22:11;;;;;;;1.50;1.27;;;;;;;;;;12546416;28;20052;-79
2022/05/21 15:28:13;;;;;;;2.05;1.50;;;;;;;;;;12544844;28;20485;-80
2022/05/21 15:34:15;;;;;;;2.03;1.48;;;;;;;;;;12544993;28;20065;-79
2022/05/21 15:40:18;;;;;;;2.03;1.38;;;;;;;;;;12526763;28;20045;-80
2022/05/21 15:46:20;;;;;;;1.73;1.63;;;;;;;;;;12544177;28;20478;-79
2022/05/21 15:52:26;;;;;;;1.25;1.15;;;;;;;;;;12544175;28;20037;-79
2022/05/21 15:58:28;;;;;;;1.50;1.40;;;;;;;;;;12509759;28;20037;-79
2022/05/21 16:04:30;;;;;;;2.92;2.17;;;;;;;;;;12509797;28;20044;-79
2022/05/21 16:10:32;;;;;;;3.75;1.92;;;;;;;;;;12525512;28;20044;-79
2022/05/21 16:16:35;;;;;;;2.70;1.98;;;;;;;;;;12525728;28;20033;-79
2022/05/21 16:22:37;;;;;;;1.80;1.70;;;;;;;;;;12552115;28;20048;-79
2022/05/21 16:28:39;;;;;;;2.35;1.75;;;;;;;;;;12535706;28;20397;-79
2022/05/21 16:34:41;;;;;;;1.60;1.50;;;;;;;;;;12535522;28;20053;-80
2022/05/21 16:40:43;;;;;;;1.40;1.30;;;;;;;;;;12534909;28;20045;-80
2022/05/21 16:46:45;;;;;;;3.92;1.60;;;;;;;;;;12534730;28;20055;-79
2022/05/21 16:52:48;;;;;;;2.97;1.40;;;;;;;;;;12552376;28;20029;-79
2022/05/21 16:58:50;;;;;;;2.90;1.92;;;;;;;;;;12551703;28;20393;-80
2022/05/21 17:04:52;;;;;;;2.88;1.67;;;;;;;;;;12552804;28;20044;-80
2022/05/21 17:10:54;;;;;;;1.63;1.40;;;;;;;;;;12533526;28;20367;-80
2022/05/21 17:16:55;;;;;;;2.30;1.58;;;;;;;;;;12533497;28;20040;-80
2022/05/21 17:22:57;;;;;;;1.65;1.40;;;;;;;;;;12550714;28;20044;-80
2022/05/21 17:35:19;;;;;;;;;;;;;;;;;;12533168;28;20056;-80
2022/05/21 17:41:24;;;;;;;2.28;1.50;;;;;;;;;;12531829;28;19921;-80
2022/05/21 17:47:26;;;;;;;1.55;1.40;;;;;;;;;;12549510;28;20037;-80
2022/05/21 17:53:28;;;;;;;1.42;1.33;;;;;;;;;;12531795;28;20398;-79
2022/05/21 17:59:30;;;;;;;1.98;1.77;;;;;;;;;;12531621;28;20044;-79
2022/05/21 18:05:39;;;;;;;3.95;3.25;;;;;;;;;;12549695;28;20048;-80
2022/05/21 18:11:41;;;;;;;2.97;2.20;;;;;;;;;;12548554;28;20047;-79
2022/05/21 18:24:03;;;;;;;3.25;1.85;;;;;;;;;;12530125;28;20033;-79
2022/05/21 18:30:06;;;;;;;2.20;1.50;;;;;;;;;;12513401;28;20036;-79
2022/05/21 18:36:07;;;;;;;2.22;1.40;;;;;;;;;;12528912;28;20049;-79
2022/05/21 18:42:09;;;;;;;2.38;1.50;;;;;;;;;;12546725;28;20041;-79
2022/05/21 18:48:11;;;;;;;2.03;1.30;;;;;;;;;;12546707;28;20036;-79
2022/05/21 18:54:13;;;;;;;1.13;1.10;;;;;;;;;;12528572;28;20041;-79
2022/05/21 19:00:15;;;;;;;1.15;1.02;;;;;;;;;;12546235;28;20041;-79
2022/05/21 19:06:17;;;;;;;1.55;1.20;;;;;;;;;;12546517;28;20040;-79
2022/05/21 19:12:19;;;;;;;1.35;1.25;;;;;;;;;;12546115;28;20064;-80
2022/05/21 19:24:42;;;;;;;3.40;1.30;;;;;;;;;;12545659;28;20398;-80
2022/05/21 19:30:46;;;;;;;3.13;1.40;;;;;;;;;;12512942;28;20041;-79
2022/05/21 19:37:07;;;;;;;2.37;1.10;;;;;;;;;;12528163;28;20056;-79
2022/05/21 19:43:09;;;;;;;1.55;1.45;;;;;;;;;;12526310;28;20041;-79
2022/05/21 19:49:11;;;;;;;3.38;1.30;;;;;;;;;;12544777;28;20474;-80
2022/05/21 19:55:13;;;;;;;2.00;1.30;;;;;;;;;;12525466;28;20048;-79
2022/05/21 20:01:14;;;;;;;2.65;1.73;;;;;;;;;;12526210;28;20037;-80
2022/05/21 20:07:23;;;;;;;1.50;1.40;;;;;;;;;;12510662;28;20397;-79
2022/05/21 20:13:25;;;;;;;1.90;1.08;;;;;;;;;;12543800;28;20056;-79
2022/05/21 20:19:27;;;;;;;2.00;1.63;;;;;;;;;;12543488;28;20067;-78
2022/05/21 20:25:29;;;;;;;1.63;1.33;;;;;;;;;;12543440;28;20033;-79
2022/05/21 20:31:31;;;;;;;2.53;1.73;;;;;;;;;;12508649;28;20068;-79
2022/05/21 20:37:34;;;;;;;1.50;1.40;;;;;;;;;;12509793;28;20029;-78
2022/05/21 20:43:36;;;;;;;4.85;1.67;;;;;;;;;;12542997;28;20033;-79
2022/05/21 20:49:38;;;;;;;1.85;1.75;;;;;;;;;;12508726;28;20048;-79
2022/05/21 20:55:40;;;;;;;1.58;1.30;;;;;;;;;;12525125;28;20036;-79
2022/05/21 21:01:41;;;;;;;1.90;1.80;;;;;;;;;;12542934;28;20223;-80
2022/05/21 21:07:43;;;;;;;;;;;;;;;;;;12549819;28;20048;-80
2022/05/21 21:13:45;;;;;;;1.73;1.63;;;;;;;;;;12534214;28;19913;-80
2022/05/21 21:19:47;;;;;;;2.05;1.95;;;;;;;;;;12517195;28;20036;-80
2022/05/21 21:25:52;;;;;;;;;;;;;;;;;;12516863;28;20044;-79
2022/05/21 21:31:53;;;;;;;3.78;2.30;;;;;;;;;;12532611;28;19917;-80
2022/05/21 21:37:55;;;;;;;;;;;;;;;;;;12532848;28;20048;-80
2022/05/21 21:43:57;;;;;;;2.80;2.17;;;;;;;;;;12532034;28;19908;-80
2022/05/21 21:49:59;;;;;;;2.08;1.98;;;;;;;;;;12531880;28;20036;-80
2022/05/21 21:56:01;;;;;;;4.05;2.72;;;;;;;;;;12515428;28;20040;-80
2022/05/21 22:02:04;;;;;;;;;;;;;;;;;;12532077;28;20498;-80
2022/05/21 22:08:07;;;;;;;2.72;2.53;;;;;;;;;;12549027;28;20369;-80
2022/05/21 22:14:13;;;;;;;2.67;2.47;;;;;;;;;;12531579;28;20037;-80
2022/05/21 22:20:15;;;;;;;2.35;2.15;;;;;;;;;;12513419;28;20041;-80
2022/05/21 22:26:17;;;;;;;;;;;;;;;;;;12530571;28;20402;-80
2022/05/21 22:32:19;;;;;;;2.90;2.53;;;;;;;;;;12547867;28;19916;-79
2022/05/21 22:38:20;;;;;;;2.22;2.10;;;;;;;;;;12547598;28;20044;-80
2022/05/21 22:44:22;;;;;;;3.95;2.72;;;;;;;;;;12529771;28;20032;-80
2022/05/21 22:50:25;;;;;;;2.75;2.50;;;;;;;;;;12547484;28;20033;-80
2022/05/21 22:56:26;;;;;;;3.40;2.40;;;;;;;;;;12529625;28;20043;-80
2022/05/21 23:02:28;;;;;;;3.00;2.70;;;;;;;;;;12529644;28;20032;-80
2022/05/21 23:08:30;;;;;;;3.67;2.40;;;;;;;;;;12528687;28;20056;-80
2022/05/21 23:20:56;;;;;;;2.80;2.60;;;;;;;;;;12545753;28;20045;-79
2022/05/21 23:26:59;;;;;;;3.30;3.00;;;;;;;;;;12545167;28;20045;-80
2022/05/21 23:33:00;;;;;;;2.63;2.42;;;;;;;;;;12528007;28;20053;-80
2022/05/21 23:39:03;;;;;;;3.25;2.28;;;;;;;;;;12545378;28;20064;-79
2022/05/21 23:45:05;;;;;;;3.33;3.03;;;;;;;;;;12527189;28;20044;-79
2022/05/21 23:51:07;;;;;;;2.72;2.53;;;;;;;;;;12510353;28;20037;-79
2022/05/21 23:57:10;;;;;;;2.80;2.60;;;;;;;;;;12545129;28;20060;-79
